sensor_id;sensor_type;location;lat;lon;timestamp;P1;durP1;ratioP1;P2;durP2;ratioP2
74241;SDS011;62599;49.146;10.426;2022-08-03T00:02:23;4.20;;;2.50;;
74241;SDS011;62599;49.146;10.426;2022-08-03T00:04:48;3.10;;;2.80;;
74241;SDS011;62599;49.146;10.426;2022-08-03T00:07:14;2.70;;;2.50;;
74241;SDS011;62599;49.146;10.426;2022-08-03T00:09:39;4.38;;;2.33;;
74241;SDS011;62599;49.146;10.426;2022-08-03T00:12:10;2.97;;;2.67;;
74241;SDS011;62599;49.146;10.426;2022-08-03T00:14:36;3.13;;;2.75;;
74241;SDS011;62599;49.146;10.426;2022-08-03T00:17:03;2.93;;;2.70;;
74241;SDS011;62599;49.146;10.426;2022-08-03T00:19:28;3.40;;;3.10;;
74241;SDS011;62599;49.146;10.426;2022-08-03T00:21:54;3.40;;;2.60;;
74241;SDS011;62599;49.146;10.426;2022-08-03T00:24:19;3.35;;;2.72;;
74241;SDS011;62599;49.146;10.426;2022-08-03T00:26:44;3.55;;;3.17;;
74241;SDS011;62599;49.146;10.426;2022-08-03T00:29:10;2.95;;;2.75;;
74241;SDS011;62599;49.146;10.426;2022-08-03T00:31:35;3.28;;;2.97;;
74241;SDS011;62599;49.146;10.426;2022-08-03T00:34:00;2.03;;;1.83;;
74241;SDS011;62599;49.146;10.426;2022-08-03T00:36:26;3.30;;;3.00;;
74241;SDS011;62599;49.146;10.426;2022-08-03T00:38:53;2.90;;;2.65;;
74241;SDS011;62599;49.146;10.426;2022-08-03T00:41:18;3.00;;;2.80;;
74241;SDS011;62599;49.146;10.426;2022-08-03T00:43:45;2.53;;;2.33;;
74241;SDS011;62599;49.146;10.426;2022-08-03T00:46:11;2.38;;;2.17;;
74241;SDS011;62599;49.146;10.426;2022-08-03T00:48:38;3.40;;;3.10;;
74241;SDS011;62599;49.146;10.426;2022-08-03T00:51:03;3.40;;;3.10;;
74241;SDS011;62599;49.146;10.426;2022-08-03T00:53:29;3.13;;;2.83;;
74241;SDS011;62599;49.146;10.426;2022-08-03T00:56:01;3.67;;;3.08;;
74241;SDS011;62599;49.146;10.426;2022-08-03T00:58:27;4.15;;;2.72;;
74241;SDS011;62599;49.146;10.426;2022-08-03T01:01:00;3.87;;;2.67;;
74241;SDS011;62599;49.146;10.426;2022-08-03T01:03:26;3.47;;;3.17;;
74241;SDS011;62599;49.146;10.426;2022-08-03T01:05:59;2.97;;;2.77;;
74241;SDS011;62599;49.146;10.426;2022-08-03T01:16:18;3.78;;;2.75;;
74241;SDS011;62599;49.146;10.426;2022-08-03T01:21:25;3.10;;;2.80;;
74241;SDS011;62599;49.146;10.426;2022-08-03T01:32:08;2.80;;;2.60;;
74241;SDS011;62599;49.146;10.426;2022-08-03T01:34:39;3.47;;;3.20;;
74241;SDS011;62599;49.146;10.426;2022-08-03T01:37:05;2.72;;;2.53;;
74241;SDS011;62599;49.146;10.426;2022-08-03T01:39:31;4.53;;;2.35;;
74241;SDS011;62599;49.146;10.426;2022-08-03T01:44:44;3.08;;;2.75;;
74241;SDS011;62599;49.146;10.426;2022-08-03T01:47:12;5.38;;;2.80;;
74241;SDS011;62599;49.146;10.426;2022-08-03T01:52:21;2.75;;;2.53;;
74241;SDS011;62599;49.146;10.426;2022-08-03T01:54:48;2.67;;;2.47;;
74241;SDS011;62599;49.146;10.426;2022-08-03T01:57:16;2.42;;;2.22;;
74241;SDS011;62599;49.146;10.426;2022-08-03T01:59:41;2.28;;;2.08;;
74241;SDS011;62599;49.146;10.426;2022-08-03T02:02:15;3.75;;;2.65;;
74241;SDS011;62599;49.146;10.426;2022-08-03T02:04:41;3.08;;;2.15;;
74241;SDS011;62599;49.146;10.426;2022-08-03T02:07:07;3.15;;;2.85;;
74241;SDS011;62599;49.146;10.426;2022-08-03T02:09:41;3.50;;;3.17;;
74241;SDS011;62599;49.146;10.426;2022-08-03T02:12:08;3.85;;;2.75;;
74241;SDS011;62599;49.146;10.426;2022-08-03T02:14:34;2.80;;;2.58;;
74241;SDS011;62599;49.146;10.426;2022-08-03T02:17:06;3.35;;;2.25;;
74241;SDS011;62599;49.146;10.426;2022-08-03T02:19:31;3.08;;;2.88;;
74241;SDS011;62599;49.146;10.426;2022-08-03T02:21:57;2.58;;;2.38;;
74241;SDS011;62599;49.146;10.426;2022-08-03T02:24:30;3.80;;;2.67;;
74241;SDS011;62599;49.146;10.426;2022-08-03T02:26:55;2.85;;;2.63;;
74241;SDS011;62599;49.146;10.426;2022-08-03T02:29:22;3.88;;;3.58;;
74241;SDS011;62599;49.146;10.426;2022-08-03T02:31:49;5.30;;;2.70;;
74241;SDS011;62599;49.146;10.426;2022-08-03T02:34:16;4.15;;;2.83;;
74241;SDS011;62599;49.146;10.426;2022-08-03T02:36:45;4.43;;;2.85;;
74241;SDS011;62599;49.146;10.426;2022-08-03T02:39:13;3.17;;;2.80;;
74241;SDS011;62599;49.146;10.426;2022-08-03T02:41:40;2.83;;;2.60;;
74241;SDS011;62599;49.146;10.426;2022-08-03T02:44:07;3.50;;;3.20;;
74241;SDS011;62599;49.146;10.426;2022-08-03T02:46:35;2.83;;;2.55;;
74241;SDS011;62599;49.146;10.426;2022-08-03T02:49:02;4.15;;;3.13;;
74241;SDS011;62599;49.146;10.426;2022-08-03T02:51:29;3.33;;;3.03;;
74241;SDS011;62599;49.146;10.426;2022-08-03T02:53:54;2.95;;;2.70;;
74241;SDS011;62599;49.146;10.426;2022-08-03T02:56:21;3.30;;;3.00;;
74241;SDS011;62599;49.146;10.426;2022-08-03T02:58:47;3.58;;;3.28;;
74241;SDS011;62599;49.146;10.426;2022-08-03T03:01:13;4.50;;;2.78;;
74241;SDS011;62599;49.146;10.426;2022-08-03T03:03:47;3.33;;;3.05;;
74241;SDS011;62599;49.146;10.426;2022-08-03T03:06:13;2.90;;;2.65;;
74241;SDS011;62599;49.146;10.426;2022-08-03T03:08:46;3.33;;;3.03;;
74241;SDS011;62599;49.146;10.426;2022-08-03T03:11:12;3.20;;;2.75;;
74241;SDS011;62599;49.146;10.426;2022-08-03T03:13:41;3.22;;;2.92;;
74241;SDS011;62599;49.146;10.426;2022-08-03T03:16:06;4.43;;;3.05;;
74241;SDS011;62599;49.146;10.426;2022-08-03T03:18:44;3.25;;;2.95;;
74241;SDS011;62599;49.146;10.426;2022-08-03T03:21:10;3.28;;;3.00;;
74241;SDS011;62599;49.146;10.426;2022-08-03T03:23:37;3.55;;;3.25;;
74241;SDS011;62599;49.146;10.426;2022-08-03T03:26:02;3.28;;;2.60;;
74241;SDS011;62599;49.146;10.426;2022-08-03T03:28:34;3.15;;;2.85;;
74241;SDS011;62599;49.146;10.426;2022-08-03T03:31:01;3.22;;;2.92;;
74241;SDS011;62599;49.146;10.426;2022-08-03T03:33:37;3.23;;;2.77;;
74241;SDS011;62599;49.146;10.426;2022-08-03T03:36:04;4.60;;;3.47;;
74241;SDS011;62599;49.146;10.426;2022-08-03T03:38:30;3.50;;;3.20;;
74241;SDS011;62599;49.146;10.426;2022-08-03T03:40:56;3.78;;;2.88;;
74241;SDS011;62599;49.146;10.426;2022-08-03T03:43:22;4.40;;;3.60;;
74241;SDS011;62599;49.146;10.426;2022-08-03T03:45:47;3.88;;;3.25;;
74241;SDS011;62599;49.146;10.426;2022-08-03T03:48:13;4.50;;;2.50;;
74241;SDS011;62599;49.146;10.426;2022-08-03T03:50:38;3.17;;;2.87;;
74241;SDS011;62599;49.146;10.426;2022-08-03T03:53:07;3.42;;;3.03;;
74241;SDS011;62599;49.146;10.426;2022-08-03T03:55:32;2.33;;;2.00;;
74241;SDS011;62599;49.146;10.426;2022-08-03T03:57:58;3.50;;;3.20;;
74241;SDS011;62599;49.146;10.426;2022-08-03T04:00:23;3.00;;;2.78;;
74241;SDS011;62599;49.146;10.426;2022-08-03T04:02:48;4.03;;;2.97;;
74241;SDS011;62599;49.146;10.426;2022-08-03T04:05:14;3.20;;;2.80;;
74241;SDS011;62599;49.146;10.426;2022-08-03T04:07:58;3.75;;;3.28;;
74241;SDS011;62599;49.146;10.426;2022-08-03T04:16:11;3.47;;;3.17;;
74241;SDS011;62599;49.146;10.426;2022-08-03T04:18:39;5.22;;;2.90;;
74241;SDS011;62599;49.146;10.426;2022-08-03T04:21:06;3.40;;;3.10;;
74241;SDS011;62599;49.146;10.426;2022-08-03T04:23:33;3.22;;;2.92;;
74241;SDS011;62599;49.146;10.426;2022-08-03T04:26:00;3.22;;;2.92;;
74241;SDS011;62599;49.146;10.426;2022-08-03T04:28:26;3.97;;;3.10;;
74241;SDS011;62599;49.146;10.426;2022-08-03T04:30:52;3.42;;;3.13;;
74241;SDS011;62599;49.146;10.426;2022-08-03T04:33:18;2.80;;;2.40;;
74241;SDS011;62599;49.146;10.426;2022-08-03T04:35:43;2.95;;;2.65;;
74241;SDS011;62599;49.146;10.426;2022-08-03T04:38:11;3.90;;;3.00;;
74241;SDS011;62599;49.146;10.426;2022-08-03T04:40:38;2.92;;;2.70;;
74241;SDS011;62599;49.146;10.426;2022-08-03T04:43:04;4.45;;;3.83;;
74241;SDS011;62599;49.146;10.426;2022-08-03T04:45:29;5.25;;;3.72;;
74241;SDS011;62599;49.146;10.426;2022-08-03T04:47:57;3.10;;;2.80;;
74241;SDS011;62599;49.146;10.426;2022-08-03T04:50:23;8.77;;;2.90;;
74241;SDS011;62599;49.146;10.426;2022-08-03T04:52:51;5.30;;;3.65;;
74241;SDS011;62599;49.146;10.426;2022-08-03T04:55:29;3.60;;;3.08;;
74241;SDS011;62599;49.146;10.426;2022-08-03T04:57:56;3.47;;;2.95;;
74241;SDS011;62599;49.146;10.426;2022-08-03T05:00:22;3.40;;;3.10;;
74241;SDS011;62599;49.146;10.426;2022-08-03T05:02:47;4.22;;;3.30;;
74241;SDS011;62599;49.146;10.426;2022-08-03T05:05:13;3.97;;;3.40;;
74241;SDS011;62599;49.146;10.426;2022-08-03T05:07:40;6.45;;;3.30;;
74241;SDS011;62599;49.146;10.426;2022-08-03T05:10:06;4.03;;;3.13;;
74241;SDS011;62599;49.146;10.426;2022-08-03T05:12:32;4.05;;;2.97;;
74241;SDS011;62599;49.146;10.426;2022-08-03T05:14:57;3.43;;;3.13;;
74241;SDS011;62599;49.146;10.426;2022-08-03T05:17:22;3.23;;;2.93;;
74241;SDS011;62599;49.146;10.426;2022-08-03T05:19:48;3.60;;;3.30;;
74241;SDS011;62599;49.146;10.426;2022-08-03T05:22:14;3.73;;;3.43;;
74241;SDS011;62599;49.146;10.426;2022-08-03T05:24:41;5.43;;;2.90;;
74241;SDS011;62599;49.146;10.426;2022-08-03T05:27:07;3.53;;;3.22;;
74241;SDS011;62599;49.146;10.426;2022-08-03T05:29:32;4.63;;;3.53;;
74241;SDS011;62599;49.146;10.426;2022-08-03T05:31:59;3.43;;;2.83;;
74241;SDS011;62599;49.146;10.426;2022-08-03T05:34:28;3.42;;;3.13;;
74241;SDS011;62599;49.146;10.426;2022-08-03T05:36:53;3.53;;;3.22;;
74241;SDS011;62599;49.146;10.426;2022-08-03T05:39:19;3.37;;;3.00;;
74241;SDS011;62599;49.146;10.426;2022-08-03T05:41:44;4.47;;;3.25;;
74241;SDS011;62599;49.146;10.426;2022-08-03T05:44:10;3.73;;;2.93;;
74241;SDS011;62599;49.146;10.426;2022-08-03T05:46:35;7.20;;;3.78;;
74241;SDS011;62599;49.146;10.426;2022-08-03T05:49:01;7.10;;;3.57;;
74241;SDS011;62599;49.146;10.426;2022-08-03T05:51:27;3.05;;;2.75;;
74241;SDS011;62599;49.146;10.426;2022-08-03T05:53:53;3.80;;;3.17;;
74241;SDS011;62599;49.146;10.426;2022-08-03T05:56:20;6.20;;;3.33;;
74241;SDS011;62599;49.146;10.426;2022-08-03T05:58:45;7.65;;;3.15;;
74241;SDS011;62599;49.146;10.426;2022-08-03T06:01:11;5.07;;;3.13;;
74241;SDS011;62599;49.146;10.426;2022-08-03T06:03:36;13.57;;;3.50;;
74241;SDS011;62599;49.146;10.426;2022-08-03T06:06:01;9.37;;;3.13;;
74241;SDS011;62599;49.146;10.426;2022-08-03T06:08:27;6.90;;;3.03;;
74241;SDS011;62599;49.146;10.426;2022-08-03T06:10:52;3.78;;;3.25;;
74241;SDS011;62599;49.146;10.426;2022-08-03T06:13:17;10.17;;;2.67;;
74241;SDS011;62599;49.146;10.426;2022-08-03T06:15:43;14.75;;;3.90;;
74241;SDS011;62599;49.146;10.426;2022-08-03T06:18:09;4.70;;;3.33;;
74241;SDS011;62599;49.146;10.426;2022-08-03T06:20:34;18.90;;;3.80;;
74241;SDS011;62599;49.146;10.426;2022-08-03T06:22:59;4.57;;;3.87;;
74241;SDS011;62599;49.146;10.426;2022-08-03T06:25:25;5.03;;;3.20;;
74241;SDS011;62599;49.146;10.426;2022-08-03T06:27:52;5.20;;;3.88;;
74241;SDS011;62599;49.146;10.426;2022-08-03T06:30:17;3.15;;;2.85;;
74241;SDS011;62599;49.146;10.426;2022-08-03T10:52:33;1.10;;;0.63;;
74241;SDS011;62599;49.146;10.426;2022-08-03T10:54:58;1.20;;;1.10;;
74241;SDS011;62599;49.146;10.426;2022-08-03T10:57:43;1.58;;;1.35;;
74241;SDS011;62599;49.146;10.426;2022-08-03T11:00:10;0.80;;;0.80;;
74241;SDS011;62599;49.146;10.426;2022-08-03T11:05:26;0.80;;;0.70;;
74241;SDS011;62599;49.146;10.426;2022-08-03T11:08:16;1.23;;;0.88;;
74241;SDS011;62599;49.146;10.426;2022-08-03T11:10:37;0.80;;;0.80;;
74241;SDS011;62599;49.146;10.426;2022-08-03T11:13:04;1.73;;;1.10;;
74241;SDS011;62599;49.146;10.426;2022-08-03T11:15:31;1.98;;;0.90;;
74241;SDS011;62599;49.146;10.426;2022-08-03T11:18:09;1.20;;;0.93;;
74241;SDS011;62599;49.146;10.426;2022-08-03T11:20:48;2.35;;;1.00;;
74241;SDS011;62599;49.146;10.426;2022-08-03T11:23:14;0.80;;;0.77;;
74241;SDS011;62599;49.146;10.426;2022-08-03T11:28:23;1.25;;;1.10;;
74241;SDS011;62599;49.146;10.426;2022-08-03T11:30:49;1.00;;;0.88;;
74241;SDS011;62599;49.146;10.426;2022-08-03T11:33:27;2.37;;;0.97;;
74241;SDS011;62599;49.146;10.426;2022-08-03T11:35:59;1.92;;;0.80;;
74241;SDS011;62599;49.146;10.426;2022-08-03T11:38:25;0.88;;;0.88;;
74241;SDS011;62599;49.146;10.426;2022-08-03T11:45:58;0.82;;;0.82;;
74241;SDS011;62599;49.146;10.426;2022-08-03T11:48:33;1.70;;;1.60;;
74241;SDS011;62599;49.146;10.426;2022-08-03T11:50:59;1.33;;;1.23;;
74241;SDS011;62599;49.146;10.426;2022-08-03T11:53:25;1.95;;;1.85;;
74241;SDS011;62599;49.146;10.426;2022-08-03T11:55:51;3.20;;;1.25;;
74241;SDS011;62599;49.146;10.426;2022-08-03T11:58:21;1.10;;;1.02;;
74241;SDS011;62599;49.146;10.426;2022-08-03T12:00:50;1.08;;;0.73;;
74241;SDS011;62599;49.146;10.426;2022-08-03T12:03:16;0.95;;;0.93;;
74241;SDS011;62599;49.146;10.426;2022-08-03T12:05:43;0.70;;;0.70;;
74241;SDS011;62599;49.146;10.426;2022-08-03T12:08:09;0.90;;;0.90;;
74241;SDS011;62599;49.146;10.426;2022-08-03T12:10:35;1.65;;;1.25;;
74241;SDS011;62599;49.146;10.426;2022-08-03T12:13:01;0.70;;;0.70;;
74241;SDS011;62599;49.146;10.426;2022-08-03T12:15:30;1.05;;;0.88;;
74241;SDS011;62599;49.146;10.426;2022-08-03T12:17:58;1.17;;;0.93;;
74241;SDS011;62599;49.146;10.426;2022-08-03T12:20:25;0.85;;;0.85;;
74241;SDS011;62599;49.146;10.426;2022-08-03T12:22:51;0.77;;;0.70;;
74241;SDS011;62599;49.146;10.426;2022-08-03T12:25:24;1.42;;;0.77;;
74241;SDS011;62599;49.146;10.426;2022-08-03T12:27:50;0.90;;;0.80;;
74241;SDS011;62599;49.146;10.426;2022-08-03T12:30:15;1.77;;;1.50;;
74241;SDS011;62599;49.146;10.426;2022-08-03T12:32:41;2.50;;;0.80;;
74241;SDS011;62599;49.146;10.426;2022-08-03T12:35:06;0.73;;;0.73;;
74241;SDS011;62599;49.146;10.426;2022-08-03T12:37:32;2.10;;;1.38;;
74241;SDS011;62599;49.146;10.426;2022-08-03T12:39:58;1.10;;;1.08;;
74241;SDS011;62599;49.146;10.426;2022-08-03T12:42:34;3.08;;;1.25;;
74241;SDS011;62599;49.146;10.426;2022-08-03T12:45:16;2.20;;;0.85;;
74241;SDS011;62599;49.146;10.426;2022-08-03T12:47:54;2.03;;;1.92;;
74241;SDS011;62599;49.146;10.426;2022-08-03T12:50:24;2.22;;;2.13;;
74241;SDS011;62599;49.146;10.426;2022-08-03T12:52:49;1.33;;;1.17;;
74241;SDS011;62599;49.146;10.426;2022-08-03T12:55:17;1.43;;;1.33;;
74241;SDS011;62599;49.146;10.426;2022-08-03T12:57:43;1.42;;;1.33;;
74241;SDS011;62599;49.146;10.426;2022-08-03T13:00:16;1.33;;;1.23;;
74241;SDS011;62599;49.146;10.426;2022-08-03T13:02:41;1.65;;;0.55;;
74241;SDS011;62599;49.146;10.426;2022-08-03T13:05:17;0.85;;;0.82;;
74241;SDS011;62599;49.146;10.426;2022-08-03T13:07:42;0.98;;;0.93;;
74241;SDS011;62599;49.146;10.426;2022-08-03T13:10:08;1.15;;;1.05;;
74241;SDS011;62599;49.146;10.426;2022-08-03T13:12:44;0.77;;;0.77;;
74241;SDS011;62599;49.146;10.426;2022-08-03T13:15:10;1.20;;;1.10;;
74241;SDS011;62599;49.146;10.426;2022-08-03T13:17:35;5.43;;;1.20;;
74241;SDS011;62599;49.146;10.426;2022-08-03T13:20:00;8.00;;;1.43;;
74241;SDS011;62599;49.146;10.426;2022-08-03T13:22:26;4.47;;;1.13;;
74241;SDS011;62599;49.146;10.426;2022-08-03T13:24:53;1.73;;;1.05;;
74241;SDS011;62599;49.146;10.426;2022-08-03T13:27:22;1.58;;;1.10;;
74241;SDS011;62599;49.146;10.426;2022-08-03T13:29:47;1.58;;;1.48;;
74241;SDS011;62599;49.146;10.426;2022-08-03T13:32:13;1.90;;;1.07;;
74241;SDS011;62599;49.146;10.426;2022-08-03T13:34:38;2.10;;;0.87;;
74241;SDS011;62599;49.146;10.426;2022-08-03T13:37:03;2.93;;;1.27;;
74241;SDS011;62599;49.146;10.426;2022-08-03T13:39:29;2.83;;;0.77;;
74241;SDS011;62599;49.146;10.426;2022-08-03T13:41:54;3.13;;;1.10;;
74241;SDS011;62599;49.146;10.426;2022-08-03T13:44:19;1.08;;;1.05;;
74241;SDS011;62599;49.146;10.426;2022-08-03T13:46:45;1.90;;;1.10;;
74241;SDS011;62599;49.146;10.426;2022-08-03T13:49:10;2.47;;;1.30;;
74241;SDS011;62599;49.146;10.426;2022-08-03T13:51:35;1.27;;;1.03;;
74241;SDS011;62599;49.146;10.426;2022-08-03T13:54:01;1.20;;;0.97;;
74241;SDS011;62599;49.146;10.426;2022-08-03T13:56:26;1.00;;;0.87;;
74241;SDS011;62599;49.146;10.426;2022-08-03T13:58:52;2.35;;;1.10;;
74241;SDS011;62599;49.146;10.426;2022-08-03T14:01:17;1.08;;;0.98;;
74241;SDS011;62599;49.146;10.426;2022-08-03T14:03:42;1.83;;;1.57;;
74241;SDS011;62599;49.146;10.426;2022-08-03T14:06:08;1.60;;;1.50;;
74241;SDS011;62599;49.146;10.426;2022-08-03T14:08:33;1.80;;;1.70;;
74241;SDS011;62599;49.146;10.426;2022-08-03T14:10:58;1.73;;;1.63;;
74241;SDS011;62599;49.146;10.426;2022-08-03T14:13:24;1.33;;;1.23;;
74241;SDS011;62599;49.146;10.426;2022-08-03T14:15:49;2.37;;;1.10;;
74241;SDS011;62599;49.146;10.426;2022-08-03T14:18:15;2.22;;;1.25;;
74241;SDS011;62599;49.146;10.426;2022-08-03T14:20:41;1.98;;;1.88;;
74241;SDS011;62599;49.146;10.426;2022-08-03T14:23:06;1.95;;;1.52;;
74241;SDS011;62599;49.146;10.426;2022-08-03T14:25:32;0.95;;;0.95;;
74241;SDS011;62599;49.146;10.426;2022-08-03T14:27:57;0.97;;;0.87;;
74241;SDS011;62599;49.146;10.426;2022-08-03T14:30:23;1.33;;;1.20;;
74241;SDS011;62599;49.146;10.426;2022-08-03T14:32:48;0.90;;;0.80;;
74241;SDS011;62599;49.146;10.426;2022-08-03T14:35:13;1.83;;;1.63;;
74241;SDS011;62599;49.146;10.426;2022-08-03T14:37:38;1.37;;;1.27;;
74241;SDS011;62599;49.146;10.426;2022-08-03T14:40:04;3.03;;;1.30;;
74241;SDS011;62599;49.146;10.426;2022-08-03T14:42:30;1.17;;;1.17;;
74241;SDS011;62599;49.146;10.426;2022-08-03T14:44:55;1.07;;;0.97;;
74241;SDS011;62599;49.146;10.426;2022-08-03T14:47:20;2.63;;;1.87;;
74241;SDS011;62599;49.146;10.426;2022-08-03T14:49:45;1.23;;;1.00;;
74241;SDS011;62599;49.146;10.426;2022-08-03T14:52:11;1.13;;;1.03;;
74241;SDS011;62599;49.146;10.426;2022-08-03T14:54:36;1.08;;;1.00;;
74241;SDS011;62599;49.146;10.426;2022-08-03T14:57:02;3.47;;;1.20;;
74241;SDS011;62599;49.146;10.426;2022-08-03T14:59:27;2.50;;;1.50;;
74241;SDS011;62599;49.146;10.426;2022-08-03T15:01:52;2.73;;;2.53;;
74241;SDS011;62599;49.146;10.426;2022-08-03T15:04:18;1.63;;;1.52;;
74241;SDS011;62599;49.146;10.426;2022-08-03T15:06:43;1.60;;;1.50;;
74241;SDS011;62599;49.146;10.426;2022-08-03T15:09:08;4.20;;;3.90;;
74241;SDS011;62599;49.146;10.426;2022-08-03T15:11:34;3.30;;;1.37;;
74241;SDS011;62599;49.146;10.426;2022-08-03T15:14:00;1.60;;;1.50;;
74241;SDS011;62599;49.146;10.426;2022-08-03T15:16:25;4.87;;;2.13;;
74241;SDS011;62599;49.146;10.426;2022-08-03T15:18:50;1.40;;;1.30;;
74241;SDS011;62599;49.146;10.426;2022-08-03T15:21:15;2.93;;;2.27;;
74241;SDS011;62599;49.146;10.426;2022-08-03T15:23:41;2.10;;;1.87;;
74241;SDS011;62599;49.146;10.426;2022-08-03T15:26:06;1.60;;;1.43;;
74241;SDS011;62599;49.146;10.426;2022-08-03T15:28:31;1.30;;;1.20;;
74241;SDS011;62599;49.146;10.426;2022-08-03T15:30:57;2.33;;;1.93;;
74241;SDS011;62599;49.146;10.426;2022-08-03T15:33:22;4.65;;;4.30;;
74241;SDS011;62599;49.146;10.426;2022-08-03T15:35:47;1.53;;;1.43;;
74241;SDS011;62599;49.146;10.426;2022-08-03T15:38:13;1.63;;;1.55;;
74241;SDS011;62599;49.146;10.426;2022-08-03T15:40:39;2.28;;;2.08;;
74241;SDS011;62599;49.146;10.426;2022-08-03T15:43:05;1.92;;;1.83;;
74241;SDS011;62599;49.146;10.426;2022-08-03T15:45:30;1.47;;;1.37;;
74241;SDS011;62599;49.146;10.426;2022-08-03T15:47:56;1.73;;;1.20;;
74241;SDS011;62599;49.146;10.426;2022-08-03T15:50:21;1.63;;;1.20;;
74241;SDS011;62599;49.146;10.426;2022-08-03T15:52:46;1.37;;;1.20;;
74241;SDS011;62599;49.146;10.426;2022-08-03T15:55:11;1.73;;;1.63;;
74241;SDS011;62599;49.146;10.426;2022-08-03T15:57:37;1.87;;;1.77;;
74241;SDS011;62599;49.146;10.426;2022-08-03T16:00:03;1.10;;;1.10;;
74241;SDS011;62599;49.146;10.426;2022-08-03T16:02:29;2.85;;;2.75;;
74241;SDS011;62599;49.146;10.426;2022-08-03T16:04:54;1.75;;;1.65;;
74241;SDS011;62599;49.146;10.426;2022-08-03T16:07:19;1.40;;;1.20;;
74241;SDS011;62599;49.146;10.426;2022-08-03T16:10:05;1.48;;;1.20;;
74241;SDS011;62599;49.146;10.426;2022-08-03T16:12:30;2.80;;;1.55;;
74241;SDS011;62599;49.146;10.426;2022-08-03T16:14:55;3.00;;;2.13;;
74241;SDS011;62599;49.146;10.426;2022-08-03T16:17:21;2.50;;;2.17;;
74241;SDS011;62599;49.146;10.426;2022-08-03T16:19:47;2.20;;;2.10;;
74241;SDS011;62599;49.146;10.426;2022-08-03T16:22:13;2.03;;;1.93;;
74241;SDS011;62599;49.146;10.426;2022-08-03T16:24:38;1.50;;;1.40;;
74241;SDS011;62599;49.146;10.426;2022-08-03T16:27:03;2.20;;;2.10;;
74241;SDS011;62599;49.146;10.426;2022-08-03T16:29:28;2.17;;;2.03;;
74241;SDS011;62599;49.146;10.426;2022-08-03T16:31:54;1.37;;;1.30;;
74241;SDS011;62599;49.146;10.426;2022-08-03T16:34:19;2.40;;;2.30;;
74241;SDS011;62599;49.146;10.426;2022-08-03T16:36:45;2.65;;;1.63;;
74241;SDS011;62599;49.146;10.426;2022-08-03T16:39:10;2.03;;;1.93;;
74241;SDS011;62599;49.146;10.426;2022-08-03T16:41:35;1.43;;;1.33;;
74241;SDS011;62599;49.146;10.426;2022-08-03T16:44:01;1.88;;;1.67;;
74241;SDS011;62599;49.146;10.426;2022-08-03T16:46:29;1.67;;;1.58;;
74241;SDS011;62599;49.146;10.426;2022-08-03T16:48:54;2.23;;;1.63;;
74241;SDS011;62599;49.146;10.426;2022-08-03T16:51:19;3.73;;;3.53;;
74241;SDS011;62599;49.146;10.426;2022-08-03T16:53:46;3.60;;;3.40;;
74241;SDS011;62599;49.146;10.426;2022-08-03T16:56:15;2.57;;;2.40;;
74241;SDS011;62599;49.146;10.426;2022-08-03T16:58:40;2.42;;;1.52;;
74241;SDS011;62599;49.146;10.426;2022-08-03T17:01:07;2.80;;;1.75;;
74241;SDS011;62599;49.146;10.426;2022-08-03T17:03:32;1.77;;;1.67;;
74241;SDS011;62599;49.146;10.426;2022-08-03T17:05:59;1.75;;;1.58;;
74241;SDS011;62599;49.146;10.426;2022-08-03T17:08:24;1.50;;;1.40;;
74241;SDS011;62599;49.146;10.426;2022-08-03T17:10:50;1.10;;;0.93;;
74241;SDS011;62599;49.146;10.426;2022-08-03T17:13:15;0.80;;;0.80;;
74241;SDS011;62599;49.146;10.426;2022-08-03T17:15:40;1.80;;;1.70;;
74241;SDS011;62599;49.146;10.426;2022-08-03T17:18:09;2.70;;;2.60;;
74241;SDS011;62599;49.146;10.426;2022-08-03T17:20:38;6.22;;;0.95;;
74241;SDS011;62599;49.146;10.426;2022-08-03T17:23:47;2.35;;;0.80;;
74241;SDS011;62599;49.146;10.426;2022-08-03T17:25:53;1.77;;;1.40;;
74241;SDS011;62599;49.146;10.426;2022-08-03T17:28:18;3.70;;;1.00;;
74241;SDS011;62599;49.146;10.426;2022-08-03T17:30:44;1.77;;;0.98;;
74241;SDS011;62599;49.146;10.426;2022-08-03T17:33:28;0.70;;;0.70;;
74241;SDS011;62599;49.146;10.426;2022-08-03T17:35:53;1.30;;;1.20;;
74241;SDS011;62599;49.146;10.426;2022-08-03T17:38:21;1.23;;;1.13;;
74241;SDS011;62599;49.146;10.426;2022-08-03T17:40:46;1.40;;;1.30;;
74241;SDS011;62599;49.146;10.426;2022-08-03T17:43:13;4.73;;;0.53;;
74241;SDS011;62599;49.146;10.426;2022-08-03T17:45:39;4.57;;;0.85;;
74241;SDS011;62599;49.146;10.426;2022-08-03T17:48:04;1.10;;;0.67;;
74241;SDS011;62599;49.146;10.426;2022-08-03T17:50:33;1.77;;;1.17;;
74241;SDS011;62599;49.146;10.426;2022-08-03T17:53:02;1.42;;;0.70;;
74241;SDS011;62599;49.146;10.426;2022-08-03T17:55:28;1.00;;;0.90;;
74241;SDS011;62599;49.146;10.426;2022-08-03T17:58:05;2.20;;;2.10;;
74241;SDS011;62599;49.146;10.426;2022-08-03T18:00:32;5.97;;;0.77;;
74241;SDS011;62599;49.146;10.426;2022-08-03T18:05:52;1.55;;;0.57;;
74241;SDS011;62599;49.146;10.426;2022-08-03T18:10:59;0.77;;;0.77;;
74241;SDS011;62599;49.146;10.426;2022-08-03T18:13:30;1.50;;;1.13;;
74241;SDS011;62599;49.146;10.426;2022-08-03T18:16:00;1.42;;;1.00;;
74241;SDS011;62599;49.146;10.426;2022-08-03T18:18:34;0.73;;;0.73;;
74241;SDS011;62599;49.146;10.426;2022-08-03T18:21:03;1.45;;;0.60;;
74241;SDS011;62599;49.146;10.426;2022-08-03T18:23:29;1.88;;;0.73;;
74241;SDS011;62599;49.146;10.426;2022-08-03T18:25:55;1.98;;;0.73;;
74241;SDS011;62599;49.146;10.426;2022-08-03T18:28:20;3.67;;;1.20;;
74241;SDS011;62599;49.146;10.426;2022-08-03T18:30:46;2.38;;;0.95;;
74241;SDS011;62599;49.146;10.426;2022-08-03T18:33:12;6.53;;;1.00;;
74241;SDS011;62599;49.146;10.426;2022-08-03T18:35:38;2.58;;;1.02;;
74241;SDS011;62599;49.146;10.426;2022-08-03T18:38:05;2.05;;;1.02;;
74241;SDS011;62599;49.146;10.426;2022-08-03T18:40:31;2.42;;;1.23;;
74241;SDS011;62599;49.146;10.426;2022-08-03T18:42:57;2.70;;;1.93;;
74241;SDS011;62599;49.146;10.426;2022-08-03T18:45:22;9.80;;;1.90;;
74241;SDS011;62599;49.146;10.426;2022-08-03T18:50:34;4.60;;;1.17;;
74241;SDS011;62599;49.146;10.426;2022-08-03T18:53:16;2.35;;;0.85;;
74241;SDS011;62599;49.146;10.426;2022-08-03T18:55:45;1.10;;;1.08;;
74241;SDS011;62599;49.146;10.426;2022-08-03T19:00:37;5.80;;;1.50;;
74241;SDS011;62599;49.146;10.426;2022-08-03T19:03:05;2.38;;;1.00;;
74241;SDS011;62599;49.146;10.426;2022-08-03T19:05:46;3.63;;;0.98;;
74241;SDS011;62599;49.146;10.426;2022-08-03T19:10:59;3.30;;;1.67;;
74241;SDS011;62599;49.146;10.426;2022-08-03T19:13:29;4.20;;;1.48;;
74241;SDS011;62599;49.146;10.426;2022-08-03T19:15:56;8.35;;;1.17;;
74241;SDS011;62599;49.146;10.426;2022-08-03T19:18:21;6.22;;;1.35;;
74241;SDS011;62599;49.146;10.426;2022-08-03T19:20:48;55.65;;;4.30;;
74241;SDS011;62599;49.146;10.426;2022-08-03T19:23:16;192.77;;;8.68;;
74241;SDS011;62599;49.146;10.426;2022-08-03T19:25:42;165.40;;;9.55;;
74241;SDS011;62599;49.146;10.426;2022-08-03T19:28:07;172.68;;;10.68;;
74241;SDS011;62599;49.146;10.426;2022-08-03T19:30:33;98.03;;;6.17;;
74241;SDS011;62599;49.146;10.426;2022-08-03T19:33:02;82.70;;;5.10;;
74241;SDS011;62599;49.146;10.426;2022-08-03T19:35:28;140.30;;;8.98;;
74241;SDS011;62599;49.146;10.426;2022-08-03T19:37:54;161.13;;;11.13;;
74241;SDS011;62599;49.146;10.426;2022-08-03T19:40:20;208.10;;;10.93;;
74241;SDS011;62599;49.146;10.426;2022-08-03T19:42:45;213.13;;;11.70;;
74241;SDS011;62599;49.146;10.426;2022-08-03T19:45:14;141.90;;;8.90;;
74241;SDS011;62599;49.146;10.426;2022-08-03T19:48:02;144.30;;;9.05;;